PWSweather.com
Personal Weather Stations
Station Observations
IMAZOWIE6
WarszawaPL

WarszawaPL

Lat: 52.27957, Lon: 21.05489

Elevation: 100

Station Type: WS1080

http://stacjapogody.waw.pl/

Latest ConditionsUpdated 10:16:06 AM GMT+01:01 Thursday, Dec 12, 2019
Currently Today's Max Today's Min Today's Average
Temperature 34.2°F1.2°C 34.9°F1.6°C 32.5°F0.3°C 33.6°F0.9°C
Dew Point -169.4°F-111.9°C -169.3°F-111.8°C -169.5°F-111.9°C -169.4°F-111.9°C
Winds Calm Calm Calm -Calm - - Calm Calm
Wind Gusts -- 1.4 mph2.3 kmh - -
Humidity - - - -
Pressure 31.05 in1051.5 mb 31.31 in1060.3 mb 31.05 in1051.5 mb -
Hour Temp Dew Point Humidity Winds Wind Gusts Pressure Precip Precip Rate Daily Precip Total
10:16 AM 34.2°F1.2°C -169.4°F-111.9°C - Calm Calm -- 31.05 in1051.5 mb 0.00 in0.0 mm 0.00 in0.0 mm 0.00 in0.0 mm
10:00 AM 33.3°F0.7°C -169.5°F-111.9°C - Calm Calm -- 31.12 in1053.8 mb 0.00 in0.0 mm 0.00 in0.0 mm 0.00 in0.0 mm
09:46 AM 33.3°F0.7°C -169.5°F-111.9°C - Calm Calm -- 31.12 in1053.8 mb 0.00 in0.0 mm 0.00 in0.0 mm 0.00 in0.0 mm
09:31 AM 33.3°F0.7°C -169.5°F-111.9°C - Calm Calm -- 31.14 in1054.5 mb 0.00 in0.0 mm 0.00 in0.0 mm 0.00 in0.0 mm
09:16 AM 33.1°F0.6°C -169.5°F-111.9°C - Calm Calm -- 31.17 in1055.5 mb 0.00 in0.0 mm 0.00 in0.0 mm 0.00 in0.0 mm
09:01 AM 32.9°F0.5°C -169.5°F-111.9°C - Calm Calm -- 31.19 in1056.2 mb 0.00 in0.0 mm 0.00 in0.0 mm 0.00 in0.0 mm
08:46 AM 32.5°F0.3°C -169.5°F-111.9°C - Calm Calm -- 31.20 in1056.6 mb 0.00 in0.0 mm 0.00 in0.0 mm 0.00 in0.0 mm
08:31 AM 32.7°F0.4°C -169.5°F-111.9°C - Calm Calm -- 31.20 in1056.6 mb 0.00 in0.0 mm 0.00 in0.0 mm 0.00 in0.0 mm
08:16 AM 32.7°F0.4°C -169.5°F-111.9°C - Calm Calm -- 31.20 in1056.6 mb 0.00 in0.0 mm 0.00 in0.0 mm 0.00 in0.0 mm
08:01 AM 32.7°F0.4°C -169.5°F-111.9°C - Calm Calm -- 31.20 in1056.6 mb 0.00 in0.0 mm 0.00 in0.0 mm 0.00 in0.0 mm
07:46 AM 32.9°F0.5°C -169.5°F-111.9°C - Calm Calm -- 31.20 in1056.6 mb 0.00 in0.0 mm 0.00 in0.0 mm 0.00 in0.0 mm
07:31 AM 32.9°F0.5°C -169.5°F-111.9°C - Calm Calm -- 31.20 in1056.6 mb 0.00 in0.0 mm 0.00 in0.0 mm 0.00 in0.0 mm
07:16 AM 33.1°F0.6°C -169.5°F-111.9°C - Calm Calm -- 31.21 in1056.9 mb 0.00 in0.0 mm 0.00 in0.0 mm 0.00 in0.0 mm
07:01 AM 33.1°F0.6°C -169.5°F-111.9°C - Calm Calm -- 31.23 in1057.6 mb 0.00 in0.0 mm 0.00 in0.0 mm 0.00 in0.0 mm
06:46 AM 33.3°F0.7°C -169.5°F-111.9°C - Calm Calm -- 31.24 in1057.9 mb 0.00 in0.0 mm 0.00 in0.0 mm 0.00 in0.0 mm
06:31 AM 34.0°F1.1°C -169.4°F-111.9°C - Calm Calm 0.6 mph1.0 kmh 31.25 in1058.2 mb 0.00 in0.0 mm 0.00 in0.0 mm 0.00 in0.0 mm
06:16 AM 34.3°F1.3°C -169.4°F-111.9°C - Calm Calm -- 31.26 in1058.6 mb 0.00 in0.0 mm 0.00 in0.0 mm 0.00 in0.0 mm
06:01 AM 34.7°F1.5°C -169.3°F-111.8°C - Calm Calm 1.4 mph2.3 kmh 31.27 in1058.9 mb 0.00 in0.0 mm 0.00 in0.0 mm 0.00 in0.0 mm
05:46 AM 34.7°F1.5°C -169.3°F-111.8°C - Calm Calm -- 31.29 in1059.6 mb 0.00 in0.0 mm 0.00 in0.0 mm 0.00 in0.0 mm
05:31 AM 34.9°F1.6°C -169.3°F-111.8°C - Calm Calm -- 31.30 in1059.9 mb 0.00 in0.0 mm 0.00 in0.0 mm 0.00 in0.0 mm
05:16 AM 34.9°F1.6°C -169.3°F-111.8°C - Calm Calm -- 31.31 in1060.3 mb 0.00 in0.0 mm 0.00 in0.0 mm 0.00 in0.0 mm
05:01 AM 34.7°F1.5°C -169.3°F-111.8°C - Calm Calm -- 31.31 in1060.3 mb 0.00 in0.0 mm 0.00 in0.0 mm 0.00 in0.0 mm
04:46 AM 34.3°F1.3°C -169.4°F-111.9°C - Calm Calm -- 31.30 in1059.9 mb 0.00 in0.0 mm 0.00 in0.0 mm 0.00 in0.0 mm
04:31 AM 34.2°F1.2°C -169.4°F-111.9°C - Calm Calm -- 31.30 in1059.9 mb 0.00 in0.0 mm 0.00 in0.0 mm 0.00 in0.0 mm
04:16 AM 34.3°F1.3°C -169.4°F-111.9°C - Calm Calm -- 31.29 in1059.6 mb 0.00 in0.0 mm 0.00 in0.0 mm 0.00 in0.0 mm
04:01 AM 34.3°F1.3°C -169.4°F-111.9°C - Calm Calm -- 31.29 in1059.6 mb 0.00 in0.0 mm 0.00 in0.0 mm 0.00 in0.0 mm
03:46 AM 34.2°F1.2°C -169.4°F-111.9°C - Calm Calm -- 31.29 in1059.6 mb 0.00 in0.0 mm 0.00 in0.0 mm 0.00 in0.0 mm
03:31 AM 34.0°F1.1°C -169.4°F-111.9°C - Calm Calm -- 31.28 in1059.3 mb 0.00 in0.0 mm 0.00 in0.0 mm 0.00 in0.0 mm
03:16 AM 34.0°F1.1°C -169.4°F-111.9°C - Calm Calm -- 31.27 in1058.9 mb 0.00 in0.0 mm 0.00 in0.0 mm 0.00 in0.0 mm
03:01 AM 34.0°F1.1°C -169.4°F-111.9°C - Calm Calm -- 31.27 in1058.9 mb 0.00 in0.0 mm 0.00 in0.0 mm 0.00 in0.0 mm
02:46 AM 33.6°F0.9°C -169.4°F-111.9°C - Calm Calm -- 31.23 in1057.6 mb 0.00 in0.0 mm 0.00 in0.0 mm 0.00 in0.0 mm
02:31 AM 33.6°F0.9°C -169.4°F-111.9°C - Calm Calm -- 31.23 in1057.6 mb 0.00 in0.0 mm 0.00 in0.0 mm 0.00 in0.0 mm
02:16 AM 33.6°F0.9°C -169.4°F-111.9°C - Calm Calm -- 31.23 in1057.6 mb 0.00 in0.0 mm 0.00 in0.0 mm 0.00 in0.0 mm
02:01 AM 33.6°F0.9°C -169.4°F-111.9°C - Calm Calm -- 31.23 in1057.6 mb 0.00 in0.0 mm 0.00 in0.0 mm 0.00 in0.0 mm
01:46 AM 33.6°F0.9°C -169.4°F-111.9°C - Calm Calm -- 31.21 in1056.9 mb 0.00 in0.0 mm 0.00 in0.0 mm 0.00 in0.0 mm
01:31 AM 33.4°F0.8°C -169.5°F-111.9°C - Calm Calm -- 31.20 in1056.6 mb 0.00 in0.0 mm 0.00 in0.0 mm 0.00 in0.0 mm
01:16 AM 33.6°F0.9°C -169.4°F-111.9°C - Calm Calm -- 31.19 in1056.2 mb 0.00 in0.0 mm 0.00 in0.0 mm 0.00 in0.0 mm
01:00 AM 33.3°F0.7°C -169.5°F-111.9°C - Calm Calm -- 31.16 in1055.2 mb 0.00 in0.0 mm 0.00 in0.0 mm 0.00 in0.0 mm
12:46 AM 33.3°F0.7°C -169.5°F-111.9°C - Calm Calm -- 31.16 in1055.2 mb 0.00 in0.0 mm 0.00 in0.0 mm 0.00 in0.0 mm
12:31 AM 33.3°F0.7°C -169.5°F-111.9°C - Calm Calm 0.6 mph1.0 kmh 31.14 in1054.5 mb 0.00 in0.0 mm 0.00 in0.0 mm 0.00 in0.0 mm
12:16 AM 33.3°F0.7°C -169.5°F-111.9°C - Calm Calm -- 31.12 in1053.8 mb 0.00 in0.0 mm 0.00 in0.0 mm 0.00 in0.0 mm
12:01 AM 33.1°F0.6°C -169.5°F-111.9°C - Calm Calm -- 31.11 in1053.5 mb 0.00 in0.0 mm 0.00 in0.0 mm 0.00 in0.0 mm